createdAt,value
2023-05-10T00:01:30.551Z,60.70
2023-05-10T00:03:57.738Z,60.50
2023-05-10T00:08:52.482Z,67.30
2023-05-10T00:18:45.295Z,62.50
2023-05-10T00:21:12.393Z,62.10
2023-05-10T00:23:40.299Z,62.80
2023-05-10T00:28:35.025Z,65.90
2023-05-10T00:31:03.499Z,70.00
2023-05-10T00:38:26.367Z,72.40
2023-05-10T00:40:53.527Z,71.80
2023-05-10T00:43:27.646Z,66.00
2023-05-10T00:48:23.437Z,65.40
2023-05-10T00:55:46.988Z,69.40
2023-05-10T00:58:14.532Z,67.40
2023-05-10T01:00:45.003Z,68.40
2023-05-10T01:03:12.745Z,68.70
2023-05-10T01:08:09.621Z,69.60
2023-05-10T01:10:36.990Z,74.80
2023-05-10T01:15:32.855Z,71.40
2023-05-10T01:18:01.513Z,71.10
2023-05-10T01:20:41.047Z,71.10
2023-05-10T01:23:26.381Z,70.80
2023-05-10T01:26:34.214Z,71.20
2023-05-10T01:32:22.155Z,76.00
2023-05-10T01:35:23.782Z,77.10
2023-05-10T01:38:08.874Z,78.20
2023-05-10T01:41:19.614Z,77.40
2023-05-10T01:44:22.774Z,76.30
2023-05-10T01:47:01.599Z,75.40
2023-05-10T01:49:38.139Z,75.90
2023-05-10T01:52:13.769Z,75.30
2023-05-10T01:55:07.695Z,77.40
2023-05-10T01:57:40.618Z,75.60
2023-05-10T02:00:10.479Z,75.50
2023-05-10T02:02:48.749Z,76.60
2023-05-10T02:05:18.837Z,76.90
2023-05-10T02:07:47.096Z,78.00
2023-05-10T02:10:16.818Z,78.30
2023-05-10T02:12:48.624Z,78.40
2023-05-10T02:15:25.755Z,79.50
2023-05-10T02:17:57.306Z,79.60
2023-05-10T02:20:27.378Z,83.50
2023-05-10T02:22:58.673Z,79.20
2023-05-10T02:25:27.973Z,79.40
2023-05-10T02:27:57.992Z,80.60
2023-05-10T02:30:26.321Z,82.00
2023-05-10T02:32:54.500Z,83.80
2023-05-10T02:35:24.029Z,83.20
2023-05-10T02:37:52.310Z,80.50
2023-05-10T02:40:23.568Z,81.60
2023-05-10T02:42:55.601Z,81.70
2023-05-10T02:45:29.223Z,82.20
2023-05-10T02:47:57.824Z,83.80
2023-05-10T02:50:29.716Z,84.70
2023-05-10T02:53:04.945Z,85.30
2023-05-10T02:55:41.457Z,84.80
2023-05-10T02:58:08.852Z,84.80
2023-05-10T03:00:37.307Z,84.80
2023-05-10T03:05:32.078Z,84.30
2023-05-10T03:08:05.072Z,85.40
2023-05-10T03:10:39.113Z,86.40
2023-05-10T03:13:36.455Z,84.30
2023-05-10T03:16:17.794Z,87.60
2023-05-10T03:19:02.822Z,85.30
2023-05-10T03:21:32.781Z,87.00
2023-05-10T03:24:08.009Z,86.60
2023-05-10T03:26:38.522Z,88.40
2023-05-10T03:29:15.169Z,87.00
2023-05-10T03:31:42.990Z,90.10
2023-05-10T03:34:10.248Z,91.10
2023-05-10T03:36:37.319Z,91.00
2023-05-10T03:39:04.547Z,90.70
2023-05-10T03:41:31.769Z,90.80
2023-05-10T03:43:58.933Z,91.30
2023-05-10T03:46:26.134Z,91.00
2023-05-10T03:48:53.615Z,92.40
2023-05-10T03:51:21.440Z,90.60
2023-05-10T03:53:49.376Z,90.90
2023-05-10T03:56:16.518Z,90.30
2023-05-10T03:58:43.690Z,90.40
2023-05-10T04:03:39.267Z,90.90
2023-05-10T04:06:07.067Z,90.90
2023-05-10T04:08:34.151Z,90.70
2023-05-10T04:11:09.958Z,90.40
2023-05-10T04:13:37.671Z,91.00
2023-05-10T04:16:05.597Z,90.40
2023-05-10T04:23:28.845Z,91.30
2023-05-10T04:26:03.113Z,91.00
2023-05-10T04:28:30.306Z,91.60
2023-05-10T04:31:09.847Z,92.40
2023-05-10T04:33:37.814Z,92.50
2023-05-10T04:36:05.684Z,92.90
2023-05-10T04:38:32.806Z,92.80
2023-05-10T04:41:10.724Z,93.40
2023-05-10T04:43:39.488Z,93.40
2023-05-10T04:46:08.458Z,92.80
2023-05-10T04:48:35.844Z,93.30
2023-05-10T04:51:04.552Z,93.10
2023-05-10T04:53:31.753Z,95.50
2023-05-10T04:55:59.125Z,95.50
2023-05-10T05:03:21.803Z,94.60
2023-05-10T05:13:14.142Z,95.30
2023-05-10T05:20:36.533Z,95.90
2023-05-10T05:23:03.610Z,95.90
2023-05-10T05:25:31.075Z,95.90
2023-05-10T05:27:58.186Z,96.90
2023-05-10T05:30:25.272Z,96.90
2023-05-10T05:32:52.396Z,97.00
2023-05-10T05:37:47.153Z,96.20
2023-05-10T05:40:15.158Z,96.70
2023-05-10T05:45:14.121Z,95.70
2023-05-10T05:47:41.771Z,95.90
2023-05-10T05:50:09.595Z,96.60
2023-05-10T05:55:04.841Z,96.40
2023-05-10T05:57:32.034Z,96.20
2023-05-10T05:59:59.106Z,97.30
2023-05-10T06:02:26.273Z,96.90
2023-05-10T06:07:21.374Z,97.50
2023-05-10T06:09:48.520Z,97.80
2023-05-10T06:12:15.642Z,98.10
2023-05-10T06:14:42.761Z,98.90
2023-05-10T06:17:09.945Z,98.80
2023-05-10T06:19:37.875Z,99.00
2023-05-10T06:22:05.099Z,99.60
2023-05-10T06:24:32.162Z,98.80
2023-05-10T06:27:01.156Z,98.60
2023-05-10T06:29:28.224Z,98.40
2023-05-10T06:31:55.591Z,99.40
2023-05-10T06:36:50.364Z,99.30
2023-05-10T06:39:17.556Z,99.70
2023-05-10T06:44:12.423Z,99.90
2023-05-10T06:46:39.628Z,99.90
2023-05-10T06:54:02.919Z,99.90
2023-05-10T06:58:57.538Z,99.90
2023-05-10T07:03:52.273Z,99.70
2023-05-10T07:06:32.148Z,99.80
2023-05-10T07:09:01.442Z,99.80
2023-05-10T07:16:23.748Z,99.50
2023-05-10T07:18:51.693Z,99.00
2023-05-10T07:23:46.450Z,99.60
2023-05-10T07:26:13.597Z,98.40
2023-05-10T07:28:40.812Z,98.50
2023-05-10T07:33:35.412Z,99.10
2023-05-10T07:36:02.544Z,99.40
2023-05-10T07:38:29.687Z,99.20
2023-05-10T07:40:56.826Z,99.00
2023-05-10T07:43:23.894Z,99.60
2023-05-10T07:48:21.242Z,99.50
2023-05-10T07:50:48.347Z,98.40
2023-05-10T07:53:15.654Z,98.70
2023-05-10T07:55:42.747Z,99.20
2023-05-10T07:58:09.908Z,98.80
2023-05-10T08:00:40.424Z,99.20
2023-05-10T08:03:07.637Z,98.30
2023-05-10T08:12:59.399Z,98.30
2023-05-10T08:15:26.687Z,98.90
2023-05-10T08:17:53.872Z,98.80
2023-05-10T08:20:21.679Z,99.70
2023-05-10T08:22:51.191Z,97.80
2023-05-10T08:25:19.141Z,97.60
2023-05-10T08:27:46.621Z,97.70
2023-05-10T08:30:14.094Z,98.20
2023-05-10T08:32:41.199Z,97.10
2023-05-10T08:35:08.698Z,96.40
2023-05-10T08:40:04.135Z,95.90
2023-05-10T08:42:36.416Z,95.50
2023-05-10T08:45:05.637Z,96.50
2023-05-10T08:52:30.930Z,93.70
2023-05-10T08:54:58.451Z,94.90
2023-05-10T08:57:26.297Z,95.80
2023-05-10T09:07:18.233Z,94.80
2023-05-10T09:09:47.179Z,94.40
2023-05-10T09:12:16.802Z,94.00
2023-05-10T09:14:45.861Z,93.40
2023-05-10T09:17:13.756Z,94.30
2023-05-10T09:19:40.940Z,93.40
2023-05-10T09:22:08.137Z,93.50
2023-05-10T09:24:35.545Z,93.70
2023-05-10T09:27:03.282Z,93.90
2023-05-10T09:29:44.397Z,93.00
2023-05-10T09:32:11.677Z,92.60
2023-05-10T09:34:41.423Z,92.90
2023-05-10T09:37:09.251Z,92.50
2023-05-10T09:39:38.722Z,92.70
2023-05-10T09:42:09.664Z,92.70
2023-05-10T09:44:39.033Z,92.40
2023-05-10T09:47:06.414Z,92.40
2023-05-10T09:49:34.334Z,92.10
2023-05-10T09:52:09.022Z,91.50
2023-05-10T09:54:37.147Z,90.80
2023-05-10T09:57:04.490Z,90.80
2023-05-10T09:59:35.884Z,90.00
2023-05-10T10:02:03.915Z,90.50
2023-05-10T10:04:31.392Z,90.30
2023-05-10T10:07:06.216Z,90.00
2023-05-10T10:09:35.195Z,89.70
2023-05-10T10:12:03.715Z,89.90
2023-05-10T10:14:31.381Z,90.20
2023-05-10T10:17:08.347Z,89.90
2023-05-10T10:19:37.598Z,90.00
2023-05-10T10:22:05.731Z,89.70
2023-05-10T10:24:33.292Z,90.00
2023-05-10T10:27:39.908Z,90.10
2023-05-10T10:30:30.812Z,90.00
2023-05-10T10:33:37.527Z,88.10
2023-05-10T10:36:05.527Z,88.80
2023-05-10T10:39:00.341Z,89.60
2023-05-10T10:41:37.184Z,91.60
2023-05-10T10:44:29.020Z,92.20
2023-05-10T10:47:34.158Z,93.00
2023-05-10T10:50:01.673Z,92.80
2023-05-10T10:52:37.912Z,93.20
2023-05-10T10:55:26.036Z,93.10
2023-05-10T10:58:05.512Z,93.20
2023-05-10T11:00:38.182Z,93.60
2023-05-10T11:03:08.150Z,93.30
2023-05-10T11:05:52.145Z,93.50
2023-05-10T11:08:31.456Z,93.10
2023-05-10T11:11:01.679Z,93.00
2023-05-10T11:13:50.022Z,93.30
2023-05-10T11:16:24.923Z,93.50
2023-05-10T11:19:10.501Z,93.60
2023-05-10T11:22:04.406Z,93.90
2023-05-10T11:24:31.525Z,94.10
2023-05-10T11:26:58.846Z,94.60
2023-05-10T11:29:27.602Z,94.00
2023-05-10T11:31:59.840Z,94.00
2023-05-10T11:34:34.675Z,94.20
2023-05-10T11:37:02.650Z,94.10
2023-05-10T11:39:32.212Z,94.50
2023-05-10T11:42:00.269Z,94.50
2023-05-10T11:44:32.564Z,95.20
2023-05-10T11:47:01.938Z,95.70
2023-05-10T11:49:29.282Z,96.00
2023-05-10T11:52:09.486Z,95.90
2023-05-10T11:54:36.966Z,96.60
2023-05-10T11:57:04.958Z,96.60
2023-05-10T11:59:32.150Z,96.80
2023-05-10T12:01:59.806Z,96.90
2023-05-10T12:04:28.955Z,96.80
2023-05-10T12:06:56.556Z,97.00
2023-05-10T12:11:58.103Z,97.30
2023-05-10T12:14:25.523Z,96.80
2023-05-10T12:16:53.414Z,96.70
2023-05-10T12:19:23.786Z,97.20
2023-05-10T12:21:50.965Z,97.00
2023-05-10T12:24:19.000Z,97.40
2023-05-10T12:26:49.459Z,97.50
2023-05-10T12:29:19.401Z,97.20
2023-05-10T12:32:01.104Z,97.40
2023-05-10T12:34:34.773Z,97.50
2023-05-10T12:37:03.517Z,97.30
2023-05-10T12:39:42.861Z,97.30
2023-05-10T12:42:11.292Z,97.70
2023-05-10T12:44:38.496Z,97.80
2023-05-10T12:47:05.632Z,97.90
2023-05-10T12:49:33.228Z,98.30
2023-05-10T12:52:00.455Z,98.30
2023-05-10T12:54:27.565Z,98.30
2023-05-10T12:56:54.658Z,98.70
2023-05-10T12:59:21.709Z,99.10
2023-05-10T13:01:48.805Z,99.50
2023-05-10T13:04:15.888Z,99.50
2023-05-10T13:06:42.999Z,99.50
2023-05-10T13:09:10.134Z,99.20
2023-05-10T13:11:37.651Z,99.20
2023-05-10T13:14:04.805Z,98.80
2023-05-10T13:16:32.724Z,98.70
2023-05-10T13:19:00.152Z,98.50
2023-05-10T13:21:27.665Z,98.40
2023-05-10T13:23:54.888Z,98.20
2023-05-10T13:26:22.483Z,98.10
2023-05-10T13:28:50.659Z,98.00
2023-05-10T13:31:17.786Z,98.20
2023-05-10T13:33:44.865Z,97.50
2023-05-10T13:36:11.952Z,98.70
2023-05-10T13:38:39.115Z,98.30
2023-05-10T13:41:06.304Z,98.30
2023-05-10T13:43:33.386Z,98.10
2023-05-10T13:46:00.649Z,97.90
2023-05-10T13:48:28.345Z,97.80
2023-05-10T13:50:55.910Z,97.60
2023-05-10T13:53:23.142Z,97.70
2023-05-10T13:55:50.635Z,97.50
2023-05-10T13:58:17.759Z,97.30
2023-05-10T14:00:44.890Z,97.30
2023-05-10T14:03:12.574Z,97.30
2023-05-10T14:05:39.874Z,97.20
2023-05-10T14:08:07.342Z,97.10
2023-05-10T14:10:34.458Z,96.80
2023-05-10T14:13:02.209Z,96.70
2023-05-10T14:15:29.337Z,97.00
2023-05-10T14:17:56.507Z,96.90
2023-05-10T14:20:23.716Z,97.00
2023-05-10T14:22:50.877Z,97.10
2023-05-10T14:25:18.948Z,97.00
2023-05-10T14:27:46.248Z,96.90
2023-05-10T14:30:13.800Z,97.10
2023-05-10T14:32:40.905Z,96.80
2023-05-10T14:35:09.470Z,97.00
2023-05-10T14:37:38.066Z,96.90
2023-05-10T14:40:07.575Z,96.80
2023-05-10T14:42:34.669Z,96.70
2023-05-10T14:45:01.739Z,96.90
2023-05-10T14:47:28.956Z,96.80
2023-05-10T14:49:56.105Z,97.20
2023-05-10T14:52:23.196Z,97.50
2023-05-10T14:54:50.342Z,97.00
2023-05-10T14:57:17.426Z,97.20
2023-05-10T14:59:44.511Z,96.80
2023-05-10T15:04:40.487Z,97.70
2023-05-10T15:07:08.049Z,96.70
2023-05-10T15:12:02.667Z,98.40
2023-05-10T15:16:58.430Z,97.70
2023-05-10T15:24:20.491Z,98.40
2023-05-10T15:29:20.850Z,99.40
2023-05-10T15:31:52.518Z,98.20
2023-05-10T15:34:20.306Z,98.40
2023-05-10T15:36:47.479Z,99.90
2023-05-10T15:39:14.670Z,98.30
2023-05-10T15:41:41.795Z,98.60
2023-05-10T15:51:35.371Z,99.90
2023-05-10T16:01:32.609Z,97.50
2023-05-10T16:11:22.768Z,99.90
2023-05-10T16:28:36.420Z,97.70
2023-05-10T16:33:31.152Z,97.30
2023-05-10T16:35:58.321Z,96.80
2023-05-10T16:38:25.495Z,98.10
2023-05-10T16:43:20.053Z,99.90
2023-05-10T16:45:47.198Z,99.70
2023-05-10T16:48:14.520Z,98.20
2023-05-10T16:50:44.552Z,96.60
2023-05-10T16:55:39.345Z,99.90
2023-05-10T16:58:06.433Z,99.90
2023-05-10T17:05:29.881Z,98.00
2023-05-10T17:20:16.655Z,97.50
2023-05-10T17:27:38.730Z,99.20
2023-05-10T17:30:07.006Z,96.50
2023-05-10T17:37:33.047Z,99.70
2023-05-10T17:40:00.943Z,96.90
2023-05-10T17:44:55.904Z,99.90
2023-05-10T17:59:40.598Z,98.70
2023-05-10T18:07:02.971Z,96.40
2023-05-10T18:09:30.161Z,99.70
2023-05-10T18:17:09.934Z,98.80
2023-05-10T18:19:37.287Z,98.40
2023-05-10T18:27:03.938Z,97.10
2023-05-10T18:29:31.173Z,96.80
2023-05-10T18:34:25.816Z,97.40
2023-05-10T18:36:53.215Z,97.20
2023-05-10T18:39:20.676Z,99.00
2023-05-10T18:41:47.860Z,96.70
2023-05-10T18:46:42.637Z,99.40
2023-05-10T18:51:37.325Z,97.30
2023-05-10T18:56:32.396Z,96.70
2023-05-10T19:01:26.966Z,96.70
2023-05-10T19:03:54.031Z,98.70
2023-05-10T19:06:21.257Z,99.90
2023-05-10T19:08:48.358Z,99.80
2023-05-10T19:11:15.711Z,99.90
2023-05-10T19:16:16.614Z,97.00
2023-05-10T19:18:47.074Z,96.80
2023-05-10T19:21:15.236Z,97.00
2023-05-10T19:23:43.730Z,99.90
2023-05-10T19:26:11.897Z,97.40
2023-05-10T19:28:39.154Z,98.00
2023-05-10T19:33:34.309Z,97.80
2023-05-10T19:36:01.780Z,98.60
2023-05-10T19:38:29.014Z,97.20
2023-05-10T19:40:59.717Z,97.80
2023-05-10T19:43:34.359Z,96.90
2023-05-10T19:46:03.165Z,97.10
2023-05-10T19:48:31.230Z,98.20
2023-05-10T19:51:08.497Z,97.10
2023-05-10T19:56:06.680Z,97.40
2023-05-10T19:58:34.445Z,98.20
2023-05-10T20:03:29.393Z,97.60
2023-05-10T20:13:19.332Z,99.90
2023-05-10T20:15:46.907Z,98.20
2023-05-10T20:18:14.090Z,97.90
2023-05-10T20:20:41.255Z,98.10
2023-05-10T20:23:08.345Z,99.50
2023-05-10T20:25:36.000Z,98.50
2023-05-10T20:28:03.779Z,98.20
2023-05-10T20:30:30.964Z,98.20
2023-05-10T20:32:58.159Z,98.80
2023-05-10T20:35:25.310Z,98.80
2023-05-10T20:40:20.095Z,98.20
2023-05-10T20:47:42.907Z,99.50
2023-05-10T20:50:10.494Z,98.90
2023-05-10T20:52:37.626Z,98.10
2023-05-10T21:02:27.777Z,97.70
2023-05-10T21:04:57.104Z,98.70
2023-05-10T21:07:25.486Z,99.90
2023-05-10T21:09:52.673Z,99.90
2023-05-10T21:12:19.718Z,99.90
2023-05-10T21:14:47.830Z,99.90
2023-05-10T21:17:14.914Z,99.90
2023-05-10T21:19:41.987Z,99.90
2023-05-10T21:22:09.259Z,99.90
2023-05-10T21:27:04.771Z,99.20
2023-05-10T21:29:32.056Z,99.50
2023-05-10T21:31:59.162Z,99.90
2023-05-10T21:34:26.840Z,99.90
2023-05-10T21:36:55.094Z,99.90
2023-05-10T21:39:22.180Z,99.90
2023-05-10T21:44:16.797Z,99.90
2023-05-10T21:46:44.344Z,99.90
2023-05-10T21:51:38.934Z,99.90
2023-05-10T21:56:33.494Z,99.90
2023-05-10T21:59:00.588Z,99.90
2023-05-10T22:03:55.313Z,99.90
2023-05-10T22:08:49.844Z,99.90
2023-05-10T22:11:16.902Z,99.90
2023-05-10T22:16:11.389Z,99.90
2023-05-10T22:18:38.583Z,99.90
2023-05-10T22:21:05.857Z,99.90
2023-05-10T22:23:32.934Z,99.90
2023-05-10T22:26:02.641Z,99.90
2023-05-10T22:28:30.113Z,99.90
2023-05-10T22:30:57.430Z,99.90
2023-05-10T22:33:24.608Z,99.90
2023-05-10T22:35:51.701Z,99.90
2023-05-10T22:38:18.846Z,99.90
2023-05-10T22:43:13.344Z,99.90
2023-05-10T22:45:40.523Z,99.90
2023-05-10T22:48:09.571Z,99.90
2023-05-10T22:57:59.670Z,99.90
2023-05-10T23:00:27.034Z,99.90
2023-05-10T23:02:54.950Z,99.90
2023-05-10T23:05:22.075Z,99.90
2023-05-10T23:07:53.228Z,99.90
2023-05-10T23:10:20.931Z,99.90
2023-05-10T23:15:15.560Z,99.90
2023-05-10T23:17:42.758Z,99.90
2023-05-10T23:20:10.793Z,99.90
2023-05-10T23:22:37.872Z,99.90
2023-05-10T23:27:33.124Z,99.90
2023-05-10T23:30:00.425Z,99.90
2023-05-10T23:32:27.594Z,99.90
2023-05-10T23:34:54.735Z,99.90
2023-05-10T23:37:21.852Z,99.90
2023-05-10T23:39:49.011Z,99.90
2023-05-10T23:42:16.456Z,99.90
2023-05-10T23:44:43.563Z,99.90
2023-05-10T23:47:10.683Z,99.90
2023-05-10T23:49:38.186Z,99.90
2023-05-10T23:52:05.307Z,99.90
2023-05-10T23:54:32.416Z,99.90
2023-05-10T23:56:59.494Z,99.90
2023-05-10T23:59:26.895Z,99.90
